Time;durP1;ratioP1;P1;durP2;ratioP2;P2;SDS_P1;SDS_P2;PMS_P1;PMS_P2;Temp;Humidity;BMP_temperature;BMP_pressure;BME280_temperature;BME280_humidity;BME280_pressure;Samples;Min_cycle;Max_cycle;Signal;HPM_P1;HPM_P2
2022/08/24 00:01:20;;;;;;;6.57;1.70;;;21.40;61.80;;;;;;5051350;28;20060;-46
2022/08/24 00:03:47;;;;;;;4.78;1.77;;;21.40;61.90;;;;;;5060586;28;20079;-47
2022/08/24 00:06:18;;;;;;;4.93;1.65;;;21.40;61.90;;;;;;5061200;28;20083;-47
2022/08/24 00:08:47;;;;;;;4.70;1.60;;;21.40;61.60;;;;;;5060953;28;20112;-46
2022/08/24 00:11:15;;;;;;;4.00;2.22;;;21.40;61.70;;;;;;5067751;28;20086;-46
2022/08/24 00:13:43;;;;;;;3.70;1.70;;;21.40;61.80;;;;;;5057816;28;20033;-47
2022/08/24 00:16:10;;;;;;;4.80;2.25;;;21.50;61.50;;;;;;5034284;28;20029;-50
2022/08/24 00:18:38;;;;;;;8.00;2.08;;;21.40;61.40;;;;;;5053349;28;20055;-46
2022/08/24 00:21:04;;;;;;;6.25;3.10;;;21.40;61.90;;;;;;5060238;28;20051;-50
2022/08/24 00:23:30;;;;;;;12.13;1.85;;;21.40;61.90;;;;;;5065622;28;20107;-46
2022/08/24 00:25:57;;;;;;;4.40;1.80;;;21.40;61.80;;;;;;5068385;28;20457;-50
2022/08/24 00:28:24;;;;;;;4.70;1.65;;;21.40;62.20;;;;;;5045135;28;20037;-46
2022/08/24 00:30:51;;;;;;;5.00;1.77;;;21.40;62.00;;;;;;5064820;28;20119;-46
2022/08/24 00:33:18;;;;;;;4.95;2.22;;;21.40;62.50;;;;;;5046533;28;20036;-46
2022/08/24 00:35:47;;;;;;;4.57;1.75;;;21.40;62.80;;;;;;5053176;28;20043;-48
2022/08/24 00:38:20;;;;;;;3.95;1.77;;;21.30;62.30;;;;;;5031358;28;20037;-46
2022/08/24 00:40:48;;;;;;;3.25;1.73;;;21.30;62.40;;;;;;5066327;28;20037;-46
2022/08/24 00:43:19;;;;;;;3.33;1.63;;;21.30;62.50;;;;;;5053392;28;20032;-48
2022/08/24 00:45:56;;;;;;;6.97;2.17;;;21.20;62.70;;;;;;5065267;28;20027;-46
2022/08/24 00:48:28;;;;;;;4.07;1.83;;;21.10;62.70;;;;;;5069283;28;20063;-46
2022/08/24 00:51:16;;;;;;;6.00;2.05;;;21.10;62.70;;;;;;5064942;28;20028;-46
2022/08/24 00:53:47;;;;;;;7.30;2.47;;;21.10;63.10;;;;;;5070822;28;20514;-47
2022/08/24 00:56:27;;;;;;;5.20;1.98;;;21.00;62.60;;;;;;5072305;28;20031;-46
2022/08/24 00:59:15;;;;;;;5.00;1.80;;;21.00;63.00;;;;;;5056116;28;20044;-46
2022/08/24 01:01:43;;;;;;;3.85;1.60;;;21.00;63.00;;;;;;5062450;28;20051;-47
2022/08/24 01:04:17;;;;;;;5.90;1.77;;;21.00;63.40;;;;;;5056522;28;20020;-48
2022/08/24 01:06:45;;;;;;;4.40;2.55;;;20.90;63.60;;;;;;5038369;28;20024;-47
2022/08/24 01:09:13;;;;;;;5.72;2.35;;;20.90;63.80;;;;;;5063705;28;20025;-46
2022/08/24 01:11:39;;;;;;;4.32;2.00;;;20.80;64.00;;;;;;5052707;28;20111;-47
2022/08/24 01:14:07;;;;;;;4.95;1.73;;;20.80;64.50;;;;;;5056289;28;20033;-46
2022/08/24 01:19:41;;;;;;;4.53;1.70;;;20.70;64.10;;;;;;5065470;28;20464;-46
2022/08/24 01:22:33;;;;;;;4.03;2.03;;;20.70;64.50;;;;;;5068134;28;20058;-48
2022/08/24 01:25:00;;;;;;;4.53;1.90;;;20.60;64.70;;;;;;5066271;28;20508;-46
2022/08/24 01:27:28;;;;;;;7.50;2.33;;;20.60;64.70;;;;;;5053647;28;20114;-46
2022/08/24 01:29:56;;;;;;;4.63;1.92;;;20.60;64.70;;;;;;5058805;28;20024;-46
2022/08/24 01:32:24;;;;;;;6.72;2.75;;;20.60;64.80;;;;;;5067010;28;20029;-46
2022/08/24 01:34:51;;;;;;;4.68;2.05;;;20.60;64.90;;;;;;5059864;28;20193;-46
2022/08/24 01:37:18;;;;;;;4.13;2.15;;;20.60;64.60;;;;;;5033182;28;20025;-47
2022/08/24 01:39:50;;;;;;;8.35;2.50;;;20.60;64.80;;;;;;5041190;28;20025;-46
2022/08/24 01:42:17;;;;;;;5.47;2.55;;;20.60;64.90;;;;;;5045403;28;20044;-49
2022/08/24 01:44:45;;;;;;;6.63;2.20;;;20.60;64.70;;;;;;5065518;28;20028;-47
2022/08/24 01:47:16;;;;;;;3.08;1.77;;;20.60;65.00;;;;;;5048271;28;20037;-47
2022/08/24 01:49:45;;;;;;;6.18;2.33;;;20.60;64.80;;;;;;5059288;28;20029;-46
2022/08/24 01:52:20;;;;;;;8.57;2.33;;;20.60;65.00;;;;;;5049336;28;20084;-47
2022/08/24 01:54:48;;;;;;;4.75;2.15;;;20.60;65.10;;;;;;5032102;28;20124;-46
2022/08/24 01:57:18;;;;;;;5.00;1.73;;;20.60;65.40;;;;;;5058140;28;20387;-46
2022/08/24 01:59:45;;;;;;;5.88;2.08;;;20.50;65.60;;;;;;5057177;28;20036;-46
2022/08/24 02:02:17;;;;;;;6.20;2.17;;;20.40;65.90;;;;;;5042509;28;20082;-47
2022/08/24 02:04:44;;;;;;;5.18;2.67;;;20.40;66.20;;;;;;5066105;28;20468;-46
2022/08/24 02:07:11;;;;;;;6.07;2.20;;;20.40;66.50;;;;;;5051150;28;20453;-46
2022/08/24 02:09:37;;;;;;;7.93;2.40;;;20.40;66.50;;;;;;5065575;28;20025;-48
2022/08/24 02:12:05;;;;;;;6.18;2.88;;;20.40;66.90;;;;;;5041878;28;20043;-47
2022/08/24 02:14:35;;;;;;;6.90;2.17;;;20.40;66.90;;;;;;5049543;28;20028;-46
2022/08/24 02:17:04;;;;;;;3.72;1.90;;;20.30;67.20;;;;;;5064827;28;20028;-48
2022/08/24 02:19:31;;;;;;;5.23;2.10;;;20.30;67.70;;;;;;5085647;28;20029;-48
2022/08/24 02:21:59;;;;;;;6.30;2.38;;;20.30;67.60;;;;;;5054080;28;20306;-47
2022/08/24 02:24:27;;;;;;;5.82;2.33;;;20.20;67.90;;;;;;5063701;28;20112;-48
2022/08/24 02:26:55;;;;;;;7.93;3.10;;;20.20;68.30;;;;;;5030484;28;20033;-49
2022/08/24 02:29:22;;;;;;;6.13;2.47;;;20.10;68.40;;;;;;5059230;28;20037;-46
2022/08/24 02:31:49;;;;;;;7.53;2.85;;;20.10;68.50;;;;;;5065268;28;20021;-47
2022/08/24 02:34:16;;;;;;;6.53;2.47;;;20.00;69.00;;;;;;5068634;28;20048;-46
2022/08/24 02:36:43;;;;;;;8.27;2.17;;;20.00;68.70;;;;;;5028085;28;20027;-46
2022/08/24 02:39:10;;;;;;;4.57;2.75;;;20.00;68.80;;;;;;5065706;28;20020;-50
2022/08/24 02:41:37;;;;;;;6.45;2.50;;;19.90;69.10;;;;;;5066980;28;20095;-46
2022/08/24 02:44:04;;;;;;;5.53;2.42;;;19.90;69.50;;;;;;5032807;28;20366;-46
2022/08/24 02:46:31;;;;;;;6.47;2.35;;;19.90;69.60;;;;;;5065325;28;20062;-46
2022/08/24 02:48:58;;;;;;;7.55;2.20;;;19.90;69.60;;;;;;5050376;28;20025;-46
2022/08/24 02:51:30;;;;;;;4.05;1.83;;;19.90;69.70;;;;;;5053148;28;20033;-46
2022/08/24 02:53:58;;;;;;;4.93;2.25;;;19.90;69.60;;;;;;5051127;28;20325;-46
2022/08/24 02:56:28;;;;;;;5.03;2.38;;;19.90;69.60;;;;;;5063355;28;20031;-46
2022/08/24 02:58:56;;;;;;;5.90;2.33;;;19.90;69.80;;;;;;5067267;28;20063;-48
2022/08/24 03:01:22;;;;;;;4.53;2.38;;;19.80;70.00;;;;;;5058467;28;20032;-46
2022/08/24 03:03:49;;;;;;;6.30;2.20;;;19.90;69.80;;;;;;5071945;28;20380;-48
2022/08/24 03:06:16;;;;;;;4.60;2.25;;;19.90;69.90;;;;;;5035899;28;20055;-48
2022/08/24 03:08:43;;;;;;;9.45;2.38;;;19.80;69.90;;;;;;5069069;28;20029;-46
2022/08/24 03:11:09;;;;;;;9.05;4.03;;;19.80;70.10;;;;;;5067628;28;20359;-49
2022/08/24 03:13:35;;;;;;;6.60;2.25;;;19.80;70.20;;;;;;5071516;28;20353;-46
2022/08/24 03:16:05;;;;;;;7.47;2.17;;;19.80;70.30;;;;;;5068473;28;20414;-46
2022/08/24 03:18:32;;;;;;;6.65;2.85;;;19.70;70.20;;;;;;5070414;28;20450;-46
2022/08/24 03:21:03;;;;;;;7.43;2.40;;;19.70;70.40;;;;;;5043239;28;20066;-49
2022/08/24 03:23:30;;;;;;;7.45;2.17;;;19.70;70.50;;;;;;5084374;28;20020;-48
2022/08/24 03:26:00;;;;;;;5.40;2.30;;;19.60;70.60;;;;;;5062448;28;20047;-46
2022/08/24 03:28:27;;;;;;;6.80;2.53;;;19.60;70.70;;;;;;5059818;28;20060;-47
2022/08/24 03:30:54;;;;;;;5.55;2.38;;;19.50;71.00;;;;;;5055388;28;20403;-46
2022/08/24 03:33:20;;;;;;;10.23;2.80;;;19.50;71.10;;;;;;5070142;28;20106;-46
2022/08/24 03:35:47;;;;;;;4.72;2.22;;;19.50;71.40;;;;;;5069053;28;20045;-46
2022/08/24 03:38:14;;;;;;;4.80;2.28;;;19.50;71.30;;;;;;5060063;28;20024;-48
2022/08/24 03:40:41;;;;;;;5.93;2.28;;;19.40;71.40;;;;;;5041323;28;20029;-45
2022/08/24 03:43:44;;;;;;;7.60;2.80;;;19.40;71.70;;;;;;5064932;28;20025;-46
2022/08/24 03:45:54;;;;;;;4.95;2.58;;;19.40;71.80;;;;;;5056332;28;20029;-46
2022/08/24 03:48:20;;;;;;;7.53;2.78;;;19.40;71.80;;;;;;5068999;28;20085;-46
2022/08/24 03:50:47;;;;;;;4.03;2.20;;;19.40;71.90;;;;;;5048410;28;20052;-48
2022/08/24 03:53:14;;;;;;;5.25;2.50;;;19.40;72.00;;;;;;5063664;28;20509;-46
2022/08/24 03:55:44;;;;;;;7.97;2.80;;;19.30;72.20;;;;;;5067788;28;20073;-46
2022/08/24 03:58:11;;;;;;;9.18;3.15;;;19.40;72.30;;;;;;5070318;28;20028;-50
2022/08/24 04:00:38;;;;;;;4.93;2.47;;;19.30;72.60;;;;;;5065313;28;20082;-46
2022/08/24 04:03:10;;;;;;;7.60;2.42;;;19.30;72.60;;;;;;5070584;28;20044;-46
2022/08/24 04:05:39;;;;;;;6.32;2.10;;;19.30;72.70;;;;;;5065369;28;20074;-47
2022/08/24 04:08:06;;;;;;;5.53;2.78;;;19.20;73.00;;;;;;5070694;28;20113;-46
2022/08/24 04:10:33;;;;;;;6.88;3.15;;;19.20;73.30;;;;;;5057764;28;20484;-46
2022/08/24 04:13:00;;;;;;;8.65;2.75;;;19.20;73.30;;;;;;5050374;28;20056;-46
2022/08/24 04:15:28;;;;;;;4.45;2.63;;;19.20;73.30;;;;;;5055600;28;20492;-46
2022/08/24 04:17:55;;;;;;;7.72;3.05;;;19.20;73.40;;;;;;5032438;28;20085;-46
2022/08/24 04:20:22;;;;;;;13.10;2.85;;;19.20;73.80;;;;;;5045864;28;20064;-46
2022/08/24 04:22:50;;;;;;;7.13;3.10;;;19.10;73.70;;;;;;5064932;28;20111;-46
2022/08/24 04:25:20;;;;;;;5.55;2.35;;;19.00;74.00;;;;;;5059816;28;20093;-49
2022/08/24 04:27:46;;;;;;;6.45;2.75;;;19.10;74.10;;;;;;5067305;28;20042;-48
2022/08/24 04:30:13;;;;;;;7.50;3.00;;;19.10;74.00;;;;;;5054326;28;20475;-46
2022/08/24 04:32:39;;;;;;;8.07;3.33;;;19.00;74.20;;;;;;5051725;28;20085;-46
2022/08/24 04:35:07;;;;;;;4.80;2.50;;;19.00;74.30;;;;;;5061369;28;20028;-47
2022/08/24 04:37:34;;;;;;;6.55;3.13;;;19.00;74.30;;;;;;5061970;28;20047;-46
2022/08/24 04:40:03;;;;;;;10.18;3.03;;;19.00;74.40;;;;;;5039578;28;20037;-46
2022/08/24 04:42:32;;;;;;;6.78;2.38;;;19.00;74.50;;;;;;5066586;28;20029;-47
2022/08/24 04:45:02;;;;;;;8.43;3.40;;;19.00;74.60;;;;;;5065281;28;20429;-46
2022/08/24 04:47:31;;;;;;;7.72;2.58;;;19.00;75.00;;;;;;5051091;28;20052;-46
2022/08/24 04:49:59;;;;;;;7.82;3.13;;;19.00;74.60;;;;;;5052586;28;20028;-46
2022/08/24 04:52:26;;;;;;;8.10;2.85;;;19.00;74.50;;;;;;5059610;28;20355;-46
2022/08/24 04:54:53;;;;;;;6.30;2.47;;;18.90;75.30;;;;;;5066128;28;20079;-48
2022/08/24 04:57:20;;;;;;;6.53;3.15;;;18.90;75.60;;;;;;5053201;28;20025;-46
2022/08/24 04:59:48;;;;;;;9.85;3.13;;;18.90;75.50;;;;;;5062652;28;20032;-46
2022/08/24 05:02:14;;;;;;;8.32;4.07;;;18.90;75.50;;;;;;5053342;28;20021;-46
2022/08/24 05:04:41;;;;;;;14.18;3.15;;;18.90;75.50;;;;;;5042928;28;20020;-48
2022/08/24 05:07:08;;;;;;;9.07;3.20;;;18.90;75.70;;;;;;5047171;28;20024;-46
2022/08/24 05:09:36;;;;;;;8.63;2.78;;;18.80;75.70;;;;;;5049616;28;20039;-46
2022/08/24 05:12:03;;;;;;;6.82;2.53;;;18.90;76.20;;;;;;5043693;28;20466;-46
2022/08/24 05:14:30;;;;;;;4.75;3.00;;;18.90;76.00;;;;;;5067528;28;20032;-47
2022/08/24 05:16:57;;;;;;;9.73;3.92;;;18.90;75.80;;;;;;5053545;28;20413;-46
2022/08/24 05:19:28;;;;;;;7.22;3.10;;;18.90;76.50;;;;;;5062135;28;20020;-48
2022/08/24 05:21:55;;;;;;;7.13;3.22;;;18.90;76.70;;;;;;5064309;28;20020;-52
2022/08/24 05:24:24;;;;;;;9.45;3.60;;;18.90;76.30;;;;;;5063811;28;20083;-46
2022/08/24 05:26:51;;;;;;;6.10;3.28;;;18.90;75.70;;;;;;5063548;28;20028;-48
2022/08/24 05:29:22;;;;;;;5.40;2.38;;;18.90;75.50;;;;;;5064716;28;20032;-46
2022/08/24 05:31:50;;;;;;;6.90;2.88;;;18.90;75.40;;;;;;5047399;28;20044;-46
2022/08/24 05:34:17;;;;;;;6.27;3.13;;;18.90;75.40;;;;;;5064083;28;20110;-46
2022/08/24 05:36:45;;;;;;;6.72;2.65;;;18.90;75.40;;;;;;5066966;28;20170;-46
2022/08/24 05:39:13;;;;;;;4.60;2.85;;;18.90;75.20;;;;;;5066726;28;20077;-46
2022/08/24 05:41:42;;;;;;;5.93;2.67;;;18.90;75.10;;;;;;5066828;28;20032;-46
2022/08/24 05:44:08;;;;;;;6.65;2.83;;;19.00;74.70;;;;;;5043003;28;20469;-46
2022/08/24 05:46:35;;;;;;;8.93;3.20;;;19.00;74.60;;;;;;5063299;28;20051;-46
2022/08/24 05:49:04;;;;;;;5.78;3.05;;;19.00;74.50;;;;;;5050394;28;20430;-47
2022/08/24 05:51:35;;;;;;;7.18;3.30;;;19.10;74.40;;;;;;5051806;28;20041;-47
2022/08/24 05:54:03;;;;;;;5.95;2.88;;;19.10;74.20;;;;;;5062407;28;20043;-46
2022/08/24 05:56:30;;;;;;;5.57;3.17;;;19.20;74.10;;;;;;5065684;28;20038;-50
2022/08/24 05:58:56;;;;;;;6.75;3.00;;;19.20;73.90;;;;;;5051230;28;20180;-46
2022/08/24 06:01:25;;;;;;;5.85;2.85;;;19.30;74.30;;;;;;5064338;28;20565;-49
2022/08/24 06:03:56;;;;;;;8.75;2.80;;;19.40;73.90;;;;;;5060146;28;20029;-46
2022/08/24 06:06:25;;;;;;;4.07;2.70;;;19.40;73.90;;;;;;5049793;28;20040;-46
2022/08/24 06:08:54;;;;;;;8.30;3.15;;;19.40;73.60;;;;;;5048643;28;20045;-48
2022/08/24 06:11:27;;;;;;;8.95;3.40;;;19.50;73.40;;;;;;5057358;28;20029;-46
2022/08/24 06:13:56;;;;;;;4.78;2.75;;;19.60;73.20;;;;;;5041000;28;20529;-46
2022/08/24 06:16:27;;;;;;;7.88;2.50;;;19.60;72.90;;;;;;5038514;28;20040;-51
2022/08/24 06:18:57;;;;;;;6.82;3.10;;;19.70;72.30;;;;;;5043220;28;20041;-47
2022/08/24 06:21:26;;;;;;;9.20;3.05;;;19.70;72.20;;;;;;5044441;28;20677;-47
2022/08/24 06:24:03;;;;;;;8.77;3.47;;;19.80;72.60;;;;;;5053163;28;20488;-46
2022/08/24 06:29:18;;;;;;;6.45;2.95;;;19.80;72.50;;;;;;5058254;28;20448;-48
2022/08/24 06:31:50;;;;;;;6.63;2.83;;;19.90;72.50;;;;;;5045572;28;20032;-46
2022/08/24 06:34:24;;;;;;;6.03;3.17;;;20.00;72.20;;;;;;5031678;28;20475;-47
2022/08/24 06:37:03;;;;;;;11.55;3.55;;;20.00;71.70;;;;;;5050966;28;20025;-47
2022/08/24 06:39:35;;;;;;;7.63;2.80;;;20.10;71.20;;;;;;5051826;28;20031;-50
2022/08/24 06:42:05;;;;;;;10.00;3.08;;;20.10;71.50;;;;;;5039840;28;20025;-47
2022/08/24 06:44:36;;;;;;;10.00;2.90;;;20.20;70.70;;;;;;5047291;28;20040;-51
2022/08/24 06:47:04;;;;;;;6.60;3.20;;;20.20;70.70;;;;;;5055323;28;20083;-50
2022/08/24 06:49:32;;;;;;;6.97;3.10;;;20.20;70.70;;;;;;5060827;28;20108;-46
2022/08/24 06:51:57;;;;;;;7.55;2.90;;;20.30;70.30;;;;;;5061148;28;20052;-50
2022/08/24 06:54:27;;;;;;;6.70;3.30;;;20.40;70.00;;;;;;5044625;28;20068;-48
2022/08/24 06:56:57;;;;;;;8.65;3.60;;;20.40;69.70;;;;;;5042894;28;20051;-47
2022/08/24 06:59:27;;;;;;;11.25;4.70;;;20.40;69.90;;;;;;5047359;28;20040;-46
2022/08/24 07:01:57;;;;;;;7.85;3.10;;;20.50;70.50;;;;;;5072355;28;20020;-49
2022/08/24 07:04:25;;;;;;;8.48;3.65;;;20.60;70.20;;;;;;5049470;28;20421;-50
2022/08/24 07:06:51;;;;;;;5.85;2.70;;;20.60;69.80;;;;;;5050407;28;20037;-48
2022/08/24 07:09:19;;;;;;;9.55;2.67;;;20.70;69.20;;;;;;5067425;28;20086;-46
2022/08/24 07:11:47;;;;;;;6.93;2.90;;;20.70;68.80;;;;;;5050231;28;20066;-46
2022/08/24 07:14:13;;;;;;;6.65;2.75;;;20.80;69.00;;;;;;5066576;28;20047;-48
2022/08/24 07:16:38;;;;;;;4.20;2.33;;;20.90;69.00;;;;;;5041230;28;20017;-46
2022/08/24 07:19:07;;;;;;;5.55;3.05;;;20.90;69.20;;;;;;5067318;28;20037;-46
2022/08/24 07:21:33;;;;;;;6.70;3.33;;;20.90;69.60;;;;;;5047114;28;20047;-47
2022/08/24 07:23:59;;;;;;;6.13;2.63;;;21.10;69.40;;;;;;5067445;28;20107;-47
2022/08/24 07:26:30;;;;;;;7.43;3.05;;;21.20;68.60;;;;;;5063468;28;20474;-46
2022/08/24 07:29:04;;;;;;;6.75;2.70;;;21.40;68.90;;;;;;5068922;28;20584;-46
2022/08/24 07:31:34;;;;;;;6.15;2.85;;;21.40;68.40;;;;;;5061567;28;20033;-48
2022/08/24 07:34:02;;;;;;;9.43;3.45;;;21.40;69.10;;;;;;5068999;28;20507;-47
2022/08/24 07:36:33;;;;;;;9.38;3.08;;;21.50;67.80;;;;;;5040662;28;20103;-48
2022/08/24 07:39:02;;;;;;;6.10;2.58;;;21.60;67.90;;;;;;5064947;28;20110;-48
2022/08/24 07:41:30;;;;;;;6.43;2.60;;;21.80;68.00;;;;;;5059884;28;20028;-48
2022/08/24 07:43:58;;;;;;;6.50;3.25;;;21.90;68.30;;;;;;5064959;28;20107;-49
2022/08/24 07:46:24;;;;;;;8.65;2.90;;;22.00;66.00;;;;;;5036236;28;20068;-46
2022/08/24 07:48:51;;;;;;;7.57;3.00;;;22.20;66.20;;;;;;5065768;28;20468;-47
2022/08/24 07:51:19;;;;;;;7.07;2.53;;;22.50;66.30;;;;;;5063745;28;20643;-47
2022/08/24 07:53:48;;;;;;;6.50;2.72;;;22.90;65.10;;;;;;5067648;28;20021;-47
2022/08/24 07:56:15;;;;;;;5.75;2.60;;;23.30;64.20;;;;;;5065683;28;20030;-51
2022/08/24 07:58:43;;;;;;;8.95;3.40;;;23.60;62.50;;;;;;5066514;28;20094;-48
2022/08/24 08:01:10;;;;;;;7.40;2.70;;;23.90;61.30;;;;;;5065925;28;20036;-47
2022/08/24 08:03:37;;;;;;;9.68;2.40;;;24.20;60.30;;;;;;5070544;28;20040;-47
2022/08/24 08:06:08;;;;;;;6.07;1.98;;;24.60;59.10;;;;;;5050660;28;20783;-48
2022/08/24 08:08:39;;;;;;;7.10;2.60;;;24.90;58.40;;;;;;5068389;28;20046;-48
2022/08/24 08:11:10;;;;;;;8.60;2.63;;;25.10;57.10;;;;;;5066189;28;20414;-48
2022/08/24 08:13:37;;;;;;;8.77;2.42;;;25.40;58.70;;;;;;5067859;28;20476;-48
2022/08/24 08:16:05;;;;;;;6.85;2.72;;;25.60;57.60;;;;;;5041659;28;20036;-47
2022/08/24 08:18:32;;;;;;;5.32;2.40;;;26.00;56.00;;;;;;5040466;28;20082;-47
2022/08/24 08:21:00;;;;;;;7.35;2.63;;;26.30;55.40;;;;;;5050853;28;20029;-48
2022/08/24 08:26:19;;;;;;;6.32;2.72;;;26.70;55.40;;;;;;5060721;28;20032;-50
2022/08/24 08:28:46;;;;;;;9.80;2.38;;;27.00;53.60;;;;;;5068243;28;20380;-48
2022/08/24 08:31:12;;;;;;;4.82;2.55;;;27.10;52.40;;;;;;5054318;28;20029;-47
2022/08/24 08:33:40;;;;;;;4.53;2.75;;;27.20;53.40;;;;;;5036489;28;20037;-47
2022/08/24 08:36:16;;;;;;;4.53;1.88;;;27.50;52.30;;;;;;5045899;28;20032;-49
2022/08/24 08:38:43;;;;;;;5.45;2.50;;;27.40;51.60;;;;;;5063207;28;20024;-49
2022/08/24 08:41:53;;;;;;;5.85;2.53;;;27.60;51.00;;;;;;5065750;28;20029;-49
2022/08/24 08:44:51;;;;;;;5.70;2.33;;;27.70;51.40;;;;;;5064979;28;20040;-47
2022/08/24 08:47:19;;;;;;;5.50;2.53;;;28.00;52.90;;;;;;5044483;28;20044;-47
2022/08/24 08:50:22;;;;;;;5.80;2.53;;;27.70;51.20;;;;;;5048265;28;20037;-47
2022/08/24 08:53:37;;;;;;;7.55;2.42;;;27.70;49.70;;;;;;5055184;28;20159;-48
2022/08/24 08:56:34;;;;;;;6.80;2.55;;;27.80;51.40;;;;;;5024221;28;20064;-49
2022/08/24 08:59:39;;;;;;;7.03;2.38;;;27.90;50.60;;;;;;5038414;28;20036;-47
2022/08/24 09:02:42;;;;;;;5.10;2.40;;;27.90;49.80;;;;;;5050622;28;20048;-51
2022/08/24 09:05:56;;;;;;;7.80;2.92;;;28.10;51.80;;;;;;5051279;28;20067;-47
2022/08/24 09:08:43;;;;;;;9.10;2.50;;;28.10;50.00;;;;;;5064939;28;20033;-47
2022/08/24 09:11:33;;;;;;;8.70;2.78;;;28.30;50.50;;;;;;5064837;28;20029;-47
2022/08/24 09:14:36;;;;;;;5.80;2.55;;;28.30;50.50;;;;;;5056308;28;20025;-48
2022/08/24 09:17:33;;;;;;;8.00;2.35;;;28.40;50.20;;;;;;5043060;28;20028;-49
2022/08/24 09:20:04;;;;;;;7.07;3.38;;;28.60;50.70;;;;;;5056088;28;20037;-50
2022/08/24 09:22:42;;;;;;;7.80;2.78;;;28.60;48.40;;;;;;5063753;28;20553;-47
2022/08/24 09:25:44;;;;;;;5.20;2.60;;;28.50;49.40;;;;;;5036902;28;20031;-48
2022/08/24 09:28:38;;;;;;;9.20;2.78;;;28.40;49.10;;;;;;5048337;28;20323;-48
2022/08/24 09:31:28;;;;;;;6.22;2.03;;;28.50;50.50;;;;;;5040729;28;20353;-47
2022/08/24 09:34:18;;;;;;;9.23;2.67;;;28.90;50.40;;;;;;5064919;28;20024;-47
2022/08/24 09:37:12;;;;;;;4.95;2.67;;;28.90;51.20;;;;;;5062724;28;20016;-47
2022/08/24 09:40:03;;;;;;;8.75;2.65;;;29.00;51.10;;;;;;5064689;28;20553;-48
2022/08/24 09:43:06;;;;;;;6.97;2.72;;;29.10;52.00;;;;;;5066937;28;20349;-51
2022/08/24 09:46:02;;;;;;;5.90;2.53;;;29.20;49.00;;;;;;5050121;28;20029;-47
2022/08/24 09:48:54;;;;;;;6.72;2.33;;;29.30;50.20;;;;;;5057860;28;20037;-48
2022/08/24 09:51:53;;;;;;;5.03;2.60;;;29.20;49.40;;;;;;5062285;28;20032;-47
2022/08/24 09:54:52;;;;;;;7.00;3.35;;;29.30;47.40;;;;;;5043306;28;20037;-49
2022/08/24 09:57:34;;;;;;;;;;;29.40;47.60;;;;;;5067583;28;20032;-49
2022/08/24 10:00:12;;;;;;;5.78;2.65;;;29.30;48.00;;;;;;5064923;28;19916;-47
2022/08/24 10:02:56;;;;;;;7.10;2.53;;;29.40;50.10;;;;;;5058903;28;20682;-48
2022/08/24 10:06:03;;;;;;;5.72;2.53;;;29.60;49.70;;;;;;5063166;28;20025;-47
2022/08/24 10:09:09;;;;;;;6.10;2.38;;;29.80;49.20;;;;;;5065563;28;20033;-48
2022/08/24 10:12:02;;;;;;;5.85;2.97;;;29.70;49.20;;;;;;5064329;28;20111;-49
2022/08/24 10:15:05;;;;;;;9.43;3.08;;;29.90;49.10;;;;;;5046353;28;20455;-51
2022/08/24 10:18:25;;;;;;;5.85;2.80;;;29.90;45.80;;;;;;5068080;28;20033;-49
2022/08/24 10:21:19;;;;;;;9.30;2.58;;;30.00;46.30;;;;;;4964381;28;20137;-47
2022/08/24 10:24:15;;;;;;;5.63;2.50;;;30.00;47.20;;;;;;5061677;28;20040;-47
2022/08/24 10:26:50;;;;;;;9.43;2.75;;;30.20;48.30;;;;;;5065182;28;20032;-47
2022/08/24 10:29:25;;;;;;;8.32;2.75;;;30.10;45.40;;;;;;5069712;28;20031;-47
2022/08/24 10:32:43;;;;;;;5.70;2.20;;;29.90;45.60;;;;;;5042278;28;20063;-48
2022/08/24 10:35:34;;;;;;;6.70;2.65;;;29.90;47.40;;;;;;4983253;28;20026;-48
2022/08/24 10:41:20;;;;;;;5.07;2.50;;;29.80;48.90;;;;;;5009226;28;20088;-50
2022/08/24 10:44:23;;;;;;;4.90;2.00;;;29.90;45.30;;;;;;5004789;28;20041;-49
2022/08/24 10:46:51;;;;;;;8.60;2.35;;;30.00;47.70;;;;;;5007976;28;20065;-47
2022/08/24 10:49:35;;;;;;;5.32;2.55;;;30.10;46.40;;;;;;5009083;28;20045;-48
2022/08/24 10:52:37;;;;;;;4.80;2.35;;;30.30;46.30;;;;;;5008586;28;20034;-48
2022/08/24 10:55:31;;;;;;;7.93;2.63;;;30.20;45.40;;;;;;5008714;28;20145;-47
2022/08/24 10:58:14;;;;;;;7.53;2.67;;;30.00;46.00;;;;;;5008390;28;20033;-48
2022/08/24 11:00:41;;;;;;;5.93;2.25;;;30.10;45.50;;;;;;5022607;28;20048;-52
2022/08/24 11:03:10;;;;;;;7.43;3.13;;;30.00;45.20;;;;;;5009164;28;20128;-47
2022/08/24 11:05:50;;;;;;;8.07;2.35;;;30.00;46.50;;;;;;5008035;28;20165;-47
2022/08/24 11:08:19;;;;;;;7.53;2.47;;;30.10;48.00;;;;;;5015769;28;20068;-47
2022/08/24 11:11:09;;;;;;;6.25;2.45;;;30.10;46.10;;;;;;5056098;28;20025;-49
2022/08/24 11:13:49;;;;;;;6.43;2.20;;;30.10;45.40;;;;;;5051091;28;20036;-47
2022/08/24 11:16:34;;;;;;;6.00;2.40;;;30.10;45.50;;;;;;5062184;28;20032;-50
2022/08/24 11:19:08;;;;;;;8.10;3.03;;;30.00;47.30;;;;;;5049503;28;20335;-47
2022/08/24 11:21:52;;;;;;;7.95;2.45;;;30.00;45.30;;;;;;5055223;28;20062;-47
2022/08/24 11:24:46;;;;;;;4.40;2.40;;;30.10;46.00;;;;;;5051728;28;20082;-49
2022/08/24 11:27:40;;;;;;;6.60;2.80;;;30.00;45.30;;;;;;5067331;28;20086;-47
2022/08/24 11:30:14;;;;;;;7.18;2.95;;;29.90;45.80;;;;;;5068455;28;20036;-50
2022/08/24 11:32:56;;;;;;;7.75;2.88;;;29.90;45.50;;;;;;5065585;28;20033;-47
2022/08/24 11:35:30;;;;;;;4.70;2.78;;;29.80;47.40;;;;;;5069412;28;20039;-47
2022/08/24 11:38:21;;;;;;;7.05;2.88;;;29.90;45.60;;;;;;5048783;28;20653;-47
2022/08/24 11:41:08;;;;;;;8.10;2.90;;;29.90;46.20;;;;;;5063394;28;20116;-47
2022/08/24 11:43:56;;;;;;;6.68;2.85;;;29.90;46.60;;;;;;5040115;28;20021;-47
2022/08/24 11:46:46;;;;;;;6.97;2.53;;;30.00;45.60;;;;;;5062782;28;20045;-47
2022/08/24 11:49:19;;;;;;;8.82;3.15;;;30.00;48.00;;;;;;5057802;28;20064;-47
2022/08/24 11:51:54;;;;;;;5.18;2.97;;;30.10;47.80;;;;;;5067237;28;20078;-48
2022/08/24 11:54:55;;;;;;;6.88;2.80;;;30.00;46.20;;;;;;5049339;28;20067;-49
2022/08/24 11:57:37;;;;;;;6.60;2.42;;;30.20;46.50;;;;;;5044958;28;20041;-47
2022/08/24 12:00:20;;;;;;;8.07;2.67;;;30.10;45.60;;;;;;5056989;28;20029;-48
2022/08/24 12:03:10;;;;;;;4.93;2.08;;;30.10;47.30;;;;;;5060583;28;20143;-49
2022/08/24 12:06:03;;;;;;;7.78;3.20;;;30.20;46.20;;;;;;5063103;28;20118;-47
2022/08/24 12:08:44;;;;;;;7.82;3.03;;;30.20;44.90;;;;;;5044670;28;20028;-47
2022/08/24 12:11:31;;;;;;;7.85;3.10;;;30.20;45.20;;;;;;5060190;28;20036;-47
2022/08/24 12:14:26;;;;;;;4.05;2.67;;;30.30;44.50;;;;;;5067117;28;20107;-48
2022/08/24 12:17:20;;;;;;;5.50;2.50;;;30.20;44.20;;;;;;5037118;28;20075;-50
2022/08/24 12:20:01;;;;;;;5.53;2.85;;;30.30;44.80;;;;;;5066398;28;20112;-50
2022/08/24 12:22:29;;;;;;;8.98;2.83;;;30.20;47.00;;;;;;5067407;28;20028;-48
2022/08/24 12:26:00;;;;;;;5.80;2.92;;;30.20;46.00;;;;;;5046140;28;20028;-47
2022/08/24 12:27:54;;;;;;;7.60;3.08;;;30.10;45.50;;;;;;5066732;28;20461;-47
2022/08/24 12:30:21;;;;;;;6.28;2.97;;;29.90;45.30;;;;;;5065312;28;20024;-48
2022/08/24 12:32:52;;;;;;;7.93;2.72;;;29.90;45.00;;;;;;5057683;28;20100;-48
2022/08/24 12:35:28;;;;;;;7.18;2.47;;;29.80;45.30;;;;;;5050542;28;20028;-47
2022/08/24 12:38:06;;;;;;;7.00;2.42;;;29.80;45.90;;;;;;5068814;28;20033;-47
2022/08/24 12:40:40;;;;;;;5.93;2.95;;;29.80;45.90;;;;;;5065487;28;20067;-50
2022/08/24 12:43:17;;;;;;;3.83;1.92;;;29.80;45.30;;;;;;5063976;28;20447;-47
2022/08/24 12:45:44;;;;;;;5.60;2.30;;;29.80;46.40;;;;;;5064180;28;20021;-49
2022/08/24 12:48:30;;;;;;;5.95;2.28;;;29.50;47.40;;;;;;5066389;28;20048;-49
2022/08/24 12:51:16;;;;;;;6.65;2.28;;;29.50;47.60;;;;;;5055314;28;20021;-47
2022/08/24 12:54:00;;;;;;;4.78;2.47;;;29.60;51.00;;;;;;5062951;28;20028;-47
2022/08/24 12:56:43;;;;;;;5.05;2.60;;;29.50;47.60;;;;;;5071338;28;20031;-48
2022/08/24 12:59:28;;;;;;;5.22;2.63;;;29.60;46.90;;;;;;5044047;28;20032;-51
2022/08/24 13:02:18;;;;;;;6.85;2.92;;;29.60;48.30;;;;;;5062136;28;20108;-50
2022/08/24 13:04:50;;;;;;;4.00;2.17;;;29.60;46.90;;;;;;5066721;28;20029;-49
2022/08/24 13:07:18;;;;;;;4.72;2.47;;;29.60;48.70;;;;;;5066758;28;20438;-47
2022/08/24 13:09:43;;;;;;;6.32;2.28;;;29.60;49.30;;;;;;5058990;28;20024;-49
2022/08/24 13:12:43;;;;;;;7.68;2.28;;;29.50;50.70;;;;;;5066137;28;20051;-50
2022/08/24 13:15:23;;;;;;;4.93;2.22;;;29.50;48.60;;;;;;5044877;28;20106;-48
2022/08/24 13:17:51;;;;;;;;;;;29.40;48.50;;;;;;5062844;28;20031;-47
2022/08/24 13:20:28;;;;;;;6.70;2.75;;;29.40;51.00;;;;;;5049946;28;19999;-49
2022/08/24 13:23:12;;;;;;;9.48;2.58;;;29.30;47.40;;;;;;5048266;28;20091;-47
2022/08/24 13:25:50;;;;;;;6.82;2.60;;;29.30;51.70;;;;;;5053644;28;20025;-47
2022/08/24 13:28:21;;;;;;;6.10;2.55;;;29.20;47.50;;;;;;5061808;28;20036;-47
2022/08/24 13:31:23;;;;;;;6.60;2.72;;;29.10;50.30;;;;;;5057760;28;20033;-50
2022/08/24 13:33:56;;;;;;;6.00;2.28;;;29.00;49.10;;;;;;5032706;28;20043;-47
2022/08/24 13:36:31;;;;;;;6.32;2.65;;;29.00;48.00;;;;;;5062027;28;20458;-50
2022/08/24 13:39:18;;;;;;;9.68;2.70;;;28.90;50.30;;;;;;5058349;28;20094;-47